Time;durP1;ratioP1;P1;durP2;ratioP2;P2;SDS_P1;SDS_P2;PMS_P1;PMS_P2;Temp;Humidity;BMP_temperature;BMP_pressure;BME280_temperature;BME280_humidity;BME280_pressure;Samples;Min_cycle;Max_cycle;Signal;HPM_P1;HPM_P2
2023/01/26 00:01:29;;;;;;;100.78;33.22;;;0.80;99.90;;;;;;5076721;28;20308;-61
2023/01/26 00:03:56;;;;;;;101.97;33.50;;;0.90;99.90;;;;;;5042741;28;20027;-60
2023/01/26 00:06:22;;;;;;;100.68;32.92;;;0.90;99.90;;;;;;5059152;28;20058;-59
2023/01/26 00:08:51;;;;;;;102.38;32.80;;;0.90;99.90;;;;;;5076467;28;20292;-60
2023/01/26 00:11:31;;;;;;;102.22;33.50;;;0.90;99.90;;;;;;5059099;28;20407;-60
2023/01/26 00:13:59;;;;;;;104.63;32.10;;;0.80;99.90;;;;;;5059132;28;20300;-61
2023/01/26 00:16:25;;;;;;;102.50;32.08;;;0.80;99.90;;;;;;5076668;28;20067;-62
2023/01/26 00:18:52;;;;;;;106.32;31.17;;;0.90;99.90;;;;;;5059165;28;20047;-61
2023/01/26 00:21:22;;;;;;;94.63;31.77;;;1.00;99.90;;;;;;5076577;28;20020;-61
2023/01/26 00:23:49;;;;;;;97.45;31.10;;;1.00;99.90;;;;;;5076546;28;20415;-61
2023/01/26 00:26:22;;;;;;;99.53;32.63;;;0.90;99.90;;;;;;5076728;28;20029;-60
2023/01/26 00:28:48;;;;;;;99.80;31.88;;;0.80;99.90;;;;;;5076497;28;20342;-60
2023/01/26 00:31:18;;;;;;;100.90;32.75;;;0.80;99.90;;;;;;5076642;28;20029;-62
2023/01/26 00:33:44;;;;;;;104.13;32.17;;;0.90;99.90;;;;;;5076173;28;20040;-60
2023/01/26 00:36:10;;;;;;;95.47;32.10;;;0.90;99.90;;;;;;5076161;28;20040;-61
2023/01/26 00:38:36;;;;;;;97.65;31.80;;;0.80;99.90;;;;;;5076197;28;20123;-61
2023/01/26 00:41:02;;;;;;;93.60;30.67;;;0.90;99.90;;;;;;5058863;28;20048;-61
2023/01/26 00:43:28;;;;;;;102.68;31.98;;;0.90;99.90;;;;;;5076221;28;20052;-62
2023/01/26 00:45:54;;;;;;;96.38;30.02;;;1.00;99.90;;;;;;5058838;28;20100;-60
2023/01/26 00:48:20;;;;;;;99.35;30.75;;;1.00;99.90;;;;;;5076189;28;20036;-61
2023/01/26 00:50:45;;;;;;;94.63;30.02;;;1.20;99.90;;;;;;5076069;28;20137;-61
2023/01/26 00:53:11;;;;;;;95.03;30.02;;;1.20;99.90;;;;;;5076344;28;20071;-62
2023/01/26 00:55:37;;;;;;;87.80;29.50;;;1.30;99.90;;;;;;5076230;28;20032;-60
2023/01/26 00:58:06;;;;;;;90.07;28.23;;;1.20;99.90;;;;;;5075999;28;20055;-61
2023/01/26 01:00:33;;;;;;;81.60;27.38;;;1.10;99.90;;;;;;5079482;28;20131;-60
2023/01/26 01:03:00;;;;;;;91.45;27.90;;;1.00;99.90;;;;;;5079638;28;20056;-60
2023/01/26 01:05:28;;;;;;;90.32;27.50;;;1.00;99.90;;;;;;5079610;28;20033;-61
2023/01/26 01:07:54;;;;;;;79.43;27.40;;;1.10;99.90;;;;;;5079446;28;20277;-60
2023/01/26 01:10:20;;;;;;;86.93;27.75;;;1.00;99.90;;;;;;5061967;28;20028;-60
2023/01/26 01:12:46;;;;;;;82.20;25.95;;;1.10;99.90;;;;;;5079408;28;20082;-60
2023/01/26 01:15:12;;;;;;;79.82;26.25;;;1.00;99.90;;;;;;5079935;28;20052;-61
2023/01/26 01:17:38;;;;;;;79.63;26.63;;;1.00;99.90;;;;;;5045651;28;20036;-59
2023/01/26 01:20:06;;;;;;;85.68;27.13;;;1.00;99.90;;;;;;5079312;28;20040;-60
2023/01/26 01:22:32;;;;;;;80.38;26.90;;;0.90;99.90;;;;;;5062204;28;20285;-61
2023/01/26 01:24:58;;;;;;;75.00;24.88;;;1.00;99.90;;;;;;5079274;28;20032;-61
2023/01/26 01:27:24;;;;;;;80.43;26.65;;;1.00;99.90;;;;;;5061842;28;20277;-60
2023/01/26 01:29:50;;;;;;;84.20;26.63;;;1.00;99.90;;;;;;5061902;28;20032;-61
2023/01/26 01:32:18;;;;;;;83.93;25.92;;;0.90;99.90;;;;;;5079072;28;20056;-60
2023/01/26 01:34:48;;;;;;;79.57;26.58;;;0.90;99.90;;;;;;5061764;28;20036;-61
2023/01/26 01:37:15;;;;;;;84.95;24.25;;;0.90;99.90;;;;;;5079038;28;20037;-61
2023/01/26 01:39:41;;;;;;;81.63;25.58;;;0.90;99.90;;;;;;5079036;28;20035;-62
2023/01/26 01:42:07;;;;;;;74.75;25.48;;;1.00;99.90;;;;;;5061587;28;20024;-62
2023/01/26 01:44:35;;;;;;;81.95;24.73;;;1.10;99.90;;;;;;5079522;28;20027;-61
2023/01/26 01:47:25;;;;;;;75.13;24.77;;;1.10;99.90;;;;;;5061353;28;20020;-60
2023/01/26 01:49:53;;;;;;;79.72;24.63;;;1.00;99.90;;;;;;5061279;28;20063;-61
2023/01/26 01:52:27;;;;;;;74.97;25.00;;;1.10;99.90;;;;;;5078708;28;20044;-62
2023/01/26 01:55:06;;;;;;;75.40;25.75;;;1.20;99.90;;;;;;5079123;28;20032;-62
2023/01/26 01:57:43;;;;;;;88.93;27.83;;;1.40;99.90;;;;;;5061277;28;20455;-62
2023/01/26 02:00:12;;;;;;;86.90;27.13;;;1.50;99.90;;;;;;5078589;28;20020;-62
2023/01/26 02:02:43;;;;;;;63.73;19.80;;;1.50;99.90;;;;;;5045105;28;20044;-62
2023/01/26 02:05:16;;;;;;;84.97;27.27;;;1.70;99.90;;;;;;5061410;28;20031;-62
2023/01/26 02:07:42;;;;;;;;;;;1.80;99.90;;;;;;5078992;28;20029;-62
2023/01/26 02:10:18;;;;;;;72.22;22.75;;;1.70;99.90;;;;;;5079019;28;19912;-62
2023/01/26 02:12:50;;;;;;;81.25;25.23;;;1.60;99.90;;;;;;5044451;28;20040;-62
2023/01/26 02:15:16;;;;;;;75.22;25.08;;;1.70;99.90;;;;;;5078468;28;20024;-62
2023/01/26 02:17:43;;;;;;;79.00;24.40;;;1.80;99.90;;;;;;5060763;28;20033;-62
2023/01/26 02:20:27;;;;;;;72.93;24.80;;;1.80;99.90;;;;;;5078196;28;20058;-62
2023/01/26 02:23:12;;;;;;;74.28;25.80;;;1.80;99.90;;;;;;5078136;28;20061;-61
2023/01/26 02:25:51;;;;;;;74.43;24.20;;;1.80;99.90;;;;;;5078000;28;20391;-62
2023/01/26 02:28:20;;;;;;;71.90;24.80;;;2.00;99.90;;;;;;5078065;28;20288;-62
2023/01/26 02:30:46;;;;;;;76.40;24.90;;;2.00;99.90;;;;;;5060806;28;20036;-62
2023/01/26 02:33:31;;;;;;;66.38;23.35;;;2.00;99.90;;;;;;5043722;28;20029;-62
2023/01/26 02:36:04;;;;;;;65.78;22.90;;;1.90;99.90;;;;;;5060455;28;20039;-62
2023/01/26 02:38:43;;;;;;;68.80;24.27;;;2.00;99.90;;;;;;5060372;28;20029;-62
2023/01/26 02:42:37;;;;;;;74.55;24.73;;;2.00;99.90;;;;;;5060521;28;20036;-62
2023/01/26 02:44:07;;;;;;;68.82;23.30;;;1.80;99.90;;;;;;5076919;28;20056;-62
2023/01/26 02:46:33;;;;;;;;;;;1.80;99.90;;;;;;5060585;28;20031;-62
2023/01/26 02:51:43;;;;;;;65.30;22.52;;;2.00;99.90;;;;;;5045839;28;20048;-63
2023/01/26 02:55:21;;;;;;;68.18;22.80;;;2.00;99.90;;;;;;5077619;28;20047;-63
2023/01/26 02:56:57;;;;;;;71.07;23.90;;;2.10;99.90;;;;;;5046489;28;20033;-62
2023/01/26 02:59:23;;;;;;;64.35;22.95;;;2.00;99.90;;;;;;5077369;28;20040;-62
2023/01/26 03:01:50;;;;;;;59.30;21.83;;;1.80;99.90;;;;;;5059937;28;20021;-62
2023/01/26 03:04:17;;;;;;;66.55;23.13;;;1.80;99.90;;;;;;5077922;28;20057;-63
2023/01/26 03:06:43;;;;;;;63.40;21.92;;;1.70;99.90;;;;;;5059795;28;20071;-62
2023/01/26 03:09:10;;;;;;;61.33;23.35;;;1.80;99.90;;;;;;5043486;28;20407;-62
2023/01/26 03:11:42;;;;;;;63.13;22.90;;;1.60;99.90;;;;;;5077134;28;20033;-62
2023/01/26 03:14:10;;;;;;;59.65;20.33;;;1.60;99.90;;;;;;5059904;28;20097;-62
2023/01/26 03:16:37;;;;;;;60.15;21.38;;;1.70;99.90;;;;;;5043253;28;20408;-63
2023/01/26 03:27:26;;;;;;;62.67;21.75;;;1.80;99.90;;;;;;5059555;28;20032;-62
2023/01/26 03:29:56;;;;;;;60.13;20.92;;;1.90;99.90;;;;;;5059718;28;20032;-61
2023/01/26 03:32:23;;;;;;;63.22;22.05;;;1.80;99.90;;;;;;5059489;28;20029;-61
2023/01/26 03:34:50;;;;;;;56.55;20.42;;;1.80;99.90;;;;;;5059397;28;20046;-60
2023/01/26 03:37:21;;;;;;;52.53;20.77;;;1.60;99.90;;;;;;5059389;28;20036;-62
2023/01/26 03:56:31;;;;;;;53.00;19.02;;;1.60;99.90;;;;;;5059265;28;20333;-60
2023/01/26 03:59:07;;;;;;;51.08;18.63;;;1.70;99.90;;;;;;5059270;28;20055;-61
2023/01/26 04:01:35;;;;;;;51.00;19.08;;;1.80;99.90;;;;;;5076579;28;20024;-61
2023/01/26 04:09:36;;;;;;;49.28;17.80;;;1.80;99.90;;;;;;5058962;28;20052;-62
2023/01/26 04:12:03;;;;;;;55.38;18.88;;;2.00;99.90;;;;;;5059030;28;20042;-62
2023/01/26 04:22:44;;;;;;;48.35;17.73;;;1.90;99.90;;;;;;5059063;28;20032;-61
2023/01/26 04:25:16;;;;;;;47.72;17.38;;;1.80;99.90;;;;;;5059142;28;20033;-61
2023/01/26 04:27:42;;;;;;;44.08;16.10;;;1.90;99.90;;;;;;5076336;28;20033;-61
2023/01/26 04:30:11;;;;;;;42.42;16.92;;;1.80;99.90;;;;;;5042719;28;20094;-61
2023/01/26 04:32:38;;;;;;;40.38;16.20;;;1.70;99.90;;;;;;5058850;28;20053;-61
2023/01/26 04:35:05;;;;;;;44.40;15.85;;;1.70;99.90;;;;;;5079106;28;20123;-61
2023/01/26 04:37:32;;;;;;;42.67;15.90;;;1.80;99.90;;;;;;5062461;28;20040;-62
2023/01/26 04:40:00;;;;;;;46.40;16.70;;;2.00;99.90;;;;;;5080161;28;20044;-61
2023/01/26 04:42:27;;;;;;;42.63;17.05;;;2.00;99.90;;;;;;5062497;28;20116;-62
2023/01/26 04:44:54;;;;;;;38.58;15.93;;;2.00;99.90;;;;;;5062678;28;20038;-62
2023/01/26 04:47:21;;;;;;;40.88;16.13;;;2.00;99.90;;;;;;5062544;28;20093;-62
2023/01/26 04:49:47;;;;;;;41.45;15.13;;;2.20;99.90;;;;;;5062331;28;20066;-61
2023/01/26 04:52:15;;;;;;;40.63;15.10;;;2.30;99.90;;;;;;5062325;28;20032;-61
2023/01/26 04:54:41;;;;;;;41.65;16.00;;;2.10;99.90;;;;;;5062367;28;20094;-61
2023/01/26 04:57:08;;;;;;;36.42;14.80;;;2.20;99.90;;;;;;5062136;28;20089;-61
2023/01/26 04:59:35;;;;;;;37.67;15.32;;;2.10;99.90;;;;;;5062155;28;20072;-61
2023/01/26 05:02:01;;;;;;;37.97;16.08;;;2.00;99.90;;;;;;5045892;28;20110;-61
2023/01/26 05:04:27;;;;;;;36.70;15.02;;;2.10;99.90;;;;;;5062464;28;20055;-61
2023/01/26 05:06:53;;;;;;;36.10;14.88;;;2.20;99.90;;;;;;5062154;28;20466;-61
2023/01/26 05:09:22;;;;;;;40.90;15.82;;;2.40;99.90;;;;;;5062671;28;20035;-61
2023/01/26 05:12:32;;;;;;;39.30;16.08;;;2.40;99.90;;;;;;5062217;28;20044;-61
2023/01/26 05:15:08;;;;;;;31.90;14.00;;;2.30;99.90;;;;;;5031640;28;20048;-61
2023/01/26 05:17:49;;;;;;;39.33;15.05;;;2.40;99.90;;;;;;5049753;28;20043;-61
2023/01/26 05:20:32;;;;;;;31.77;11.73;;;2.40;99.90;;;;;;5079230;28;20343;-61
2023/01/26 05:23:05;;;;;;;38.85;15.32;;;2.50;99.90;;;;;;5062715;28;20089;-61
2023/01/26 05:25:45;;;;;;;40.50;16.55;;;2.50;99.90;;;;;;5047112;28;20406;-60
2023/01/26 05:28:12;;;;;;;38.65;15.23;;;2.30;99.90;;;;;;5061523;28;20404;-61
2023/01/26 05:30:39;;;;;;;39.50;16.30;;;2.20;99.90;;;;;;5061595;28;20396;-61
2023/01/26 05:33:07;;;;;;;44.58;16.80;;;2.20;99.90;;;;;;5061596;28;20111;-61
2023/01/26 05:35:33;;;;;;;41.28;15.52;;;2.20;99.90;;;;;;5061791;28;20044;-61
2023/01/26 05:37:59;;;;;;;41.38;16.33;;;2.40;99.90;;;;;;5078288;28;20036;-61
2023/01/26 05:40:27;;;;;;;36.13;15.80;;;2.50;99.90;;;;;;5061541;28;20047;-61
2023/01/26 05:42:54;;;;;;;37.35;15.48;;;2.60;99.90;;;;;;5079087;28;20028;-61
2023/01/26 05:45:26;;;;;;;41.38;16.02;;;2.70;99.90;;;;;;5061096;28;20028;-61
2023/01/26 05:47:55;;;;;;;42.40;16.15;;;2.80;99.90;;;;;;5061480;28;20044;-62
2023/01/26 05:50:21;;;;;;;35.90;15.05;;;2.90;99.90;;;;;;5044752;28;20070;-61
2023/01/26 05:53:07;;;;;;;35.17;14.82;;;2.90;99.90;;;;;;5078557;28;20109;-61
2023/01/26 05:55:35;;;;;;;39.22;16.20;;;2.70;99.90;;;;;;5044991;28;20047;-61
2023/01/26 05:58:01;;;;;;;37.00;15.13;;;2.80;99.90;;;;;;5044777;28;20119;-61
2023/01/26 06:00:27;;;;;;;35.65;15.35;;;2.70;99.90;;;;;;5061095;28;20114;-61
2023/01/26 06:03:00;;;;;;;36.53;15.18;;;2.70;99.90;;;;;;5061075;28;20029;-62
2023/01/26 06:05:27;;;;;;;37.13;15.60;;;2.80;99.90;;;;;;5044738;28;20029;-61
2023/01/26 06:07:54;;;;;;;38.67;14.90;;;2.80;99.90;;;;;;5060929;28;20032;-62
2023/01/26 06:10:30;;;;;;;39.03;14.70;;;2.70;99.90;;;;;;5045704;28;20052;-61
2023/01/26 06:13:08;;;;;;;32.70;13.60;;;2.60;99.90;;;;;;5078299;28;20037;-60
2023/01/26 06:15:46;;;;;;;34.10;14.35;;;2.30;99.90;;;;;;5062616;28;20040;-60
2023/01/26 06:18:12;;;;;;;34.63;14.43;;;2.30;99.90;;;;;;5060801;28;20415;-60
2023/01/26 06:20:43;;;;;;;32.28;14.07;;;2.20;99.90;;;;;;5044513;28;20037;-61
2023/01/26 06:23:10;;;;;;;35.33;15.30;;;2.40;99.90;;;;;;5077961;28;20077;-61
2023/01/26 06:25:40;;;;;;;38.03;14.13;;;2.40;99.90;;;;;;5060677;28;20032;-60
2023/01/26 06:28:06;;;;;;;33.60;14.23;;;2.40;99.90;;;;;;5060613;28;20292;-61
2023/01/26 06:30:33;;;;;;;33.92;14.25;;;2.40;99.90;;;;;;5060550;28;20085;-61
2023/01/26 06:33:01;;;;;;;34.83;15.15;;;2.60;99.90;;;;;;5028125;28;20060;-61
2023/01/26 06:35:28;;;;;;;39.08;14.77;;;2.60;99.90;;;;;;5060420;28;20035;-60
2023/01/26 06:37:57;;;;;;;31.20;14.18;;;2.80;99.90;;;;;;5060872;28;20071;-60
2023/01/26 06:40:23;;;;;;;32.90;14.13;;;2.80;99.90;;;;;;5043721;28;20060;-60
2023/01/26 06:42:50;;;;;;;34.95;14.48;;;2.90;99.90;;;;;;5060263;28;20355;-61
2023/01/26 06:45:19;;;;;;;37.78;15.07;;;3.00;99.90;;;;;;5060331;28;20086;-60
2023/01/26 06:47:47;;;;;;;31.70;13.73;;;3.10;99.90;;;;;;5077707;28;20036;-61
2023/01/26 06:50:15;;;;;;;32.47;14.10;;;3.20;99.90;;;;;;5043762;28;20071;-61
2023/01/26 06:52:44;;;;;;;34.10;14.20;;;3.20;99.90;;;;;;5060378;28;20300;-61
2023/01/26 06:55:35;;;;;;;34.63;14.50;;;3.30;99.90;;;;;;5077494;28;20076;-61
2023/01/26 06:58:33;;;;;;;35.53;15.35;;;3.30;99.90;;;;;;5063085;28;20396;-61
2023/01/26 07:01:38;;;;;;;32.17;14.07;;;3.20;99.90;;;;;;5059977;28;20047;-61
2023/01/26 07:04:04;;;;;;;34.60;14.43;;;3.20;99.90;;;;;;5077306;28;20469;-62
2023/01/26 07:06:30;;;;;;;35.42;14.00;;;3.30;99.90;;;;;;5077297;28;20055;-62
2023/01/26 07:08:56;;;;;;;32.25;14.15;;;3.30;99.90;;;;;;5043373;28;20041;-62
2023/01/26 07:11:22;;;;;;;35.70;14.65;;;3.40;99.90;;;;;;5077624;28;20301;-62
2023/01/26 07:13:48;;;;;;;32.53;14.40;;;3.40;99.90;;;;;;5077186;28;20064;-62
2023/01/26 07:16:15;;;;;;;35.03;14.98;;;3.40;99.90;;;;;;5060377;28;20067;-62
2023/01/26 07:18:42;;;;;;;32.53;13.77;;;3.50;99.90;;;;;;5059670;28;20356;-62
2023/01/26 07:21:14;;;;;;;37.75;16.48;;;3.50;99.90;;;;;;5059556;28;20097;-62
2023/01/26 07:23:41;;;;;;;46.25;17.85;;;3.50;99.90;;;;;;5077154;28;20031;-62
2023/01/26 07:26:07;;;;;;;50.38;19.70;;;3.50;99.90;;;;;;5059939;28;20323;-60
2023/01/26 07:28:35;;;;;;;54.60;19.17;;;3.60;99.90;;;;;;5076936;28;20025;-61
2023/01/26 07:31:03;;;;;;;45.97;18.77;;;3.60;99.90;;;;;;5077015;28;20064;-61
2023/01/26 07:33:30;;;;;;;35.40;15.30;;;3.70;99.90;;;;;;5059374;28;20035;-62
2023/01/26 07:35:56;;;;;;;39.28;17.45;;;4.50;99.90;;;;;;5059499;28;20095;-61
2023/01/26 07:38:23;;;;;;;37.50;17.30;;;4.50;99.90;;;;;;5059302;28;20299;-61
2023/01/26 07:40:50;;;;;;;40.78;17.33;;;4.30;99.90;;;;;;5076666;28;20292;-61
2023/01/26 07:43:16;;;;;;;41.83;18.80;;;4.10;99.90;;;;;;5076776;28;20036;-61
2023/01/26 07:45:51;;;;;;;50.10;19.80;;;4.10;99.90;;;;;;5076711;28;20089;-61
2023/01/26 07:48:19;;;;;;;47.42;19.48;;;4.10;99.90;;;;;;5042706;28;20024;-61
2023/01/26 07:50:46;;;;;;;45.03;20.35;;;4.00;99.90;;;;;;5076564;28;20048;-61
2023/01/26 07:53:18;;;;;;;50.88;20.67;;;4.00;99.90;;;;;;5059344;28;20032;-61
2023/01/26 07:55:44;;;;;;;55.33;20.80;;;4.00;99.90;;;;;;5059330;28;20394;-61
2023/01/26 07:58:10;;;;;;;50.38;20.08;;;3.90;99.90;;;;;;5076561;28;20339;-61
2023/01/26 08:00:37;;;;;;;44.20;19.58;;;3.90;99.90;;;;;;5076615;28;20318;-61
2023/01/26 08:03:03;;;;;;;52.63;21.70;;;3.90;99.90;;;;;;5076754;28;20086;-61
2023/01/26 08:05:30;;;;;;;45.53;21.67;;;4.00;99.90;;;;;;5076609;28;20025;-61
2023/01/26 08:07:59;;;;;;;50.67;20.95;;;4.00;99.90;;;;;;5077936;28;20502;-61
2023/01/26 08:10:30;;;;;;;44.67;20.27;;;4.00;99.90;;;;;;5046588;28;20029;-61
2023/01/26 08:13:02;;;;;;;53.20;21.20;;;4.10;99.90;;;;;;5063425;28;20115;-62
2023/01/26 08:15:29;;;;;;;47.78;20.63;;;4.00;99.90;;;;;;5064057;28;20068;-62
2023/01/26 08:17:55;;;;;;;45.63;20.73;;;4.10;99.90;;;;;;5062920;28;20040;-61
2023/01/26 08:20:21;;;;;;;52.42;22.35;;;4.20;99.90;;;;;;5080839;28;20303;-62
2023/01/26 08:22:47;;;;;;;49.67;20.23;;;4.20;99.90;;;;;;5080396;28;20112;-62
2023/01/26 08:25:13;;;;;;;48.13;19.60;;;4.20;99.90;;;;;;5030257;28;20108;-62
2023/01/26 08:27:39;;;;;;;41.75;17.95;;;4.30;99.90;;;;;;5080404;28;20082;-62
2023/01/26 08:30:05;;;;;;;44.45;18.25;;;4.40;99.90;;;;;;5080313;28;20028;-62
2023/01/26 08:32:31;;;;;;;38.22;17.65;;;4.50;99.90;;;;;;5080388;28;20388;-62
2023/01/26 08:34:57;;;;;;;37.70;17.13;;;4.50;99.90;;;;;;5062709;28;20170;-62
2023/01/26 08:37:23;;;;;;;32.33;16.38;;;4.60;99.90;;;;;;5062939;28;20041;-61
2023/01/26 08:39:49;;;;;;;36.38;16.48;;;4.60;99.90;;;;;;5080376;28;20396;-61
2023/01/26 08:42:14;;;;;;;36.10;16.02;;;4.60;99.90;;;;;;5080122;28;20039;-61
2023/01/26 08:44:40;;;;;;;39.33;17.80;;;4.70;99.90;;;;;;5079973;28;20129;-61
2023/01/26 08:47:06;;;;;;;37.30;17.40;;;4.70;99.90;;;;;;5080306;28;20055;-61
2023/01/26 08:49:32;;;;;;;38.53;17.05;;;4.80;99.90;;;;;;5062316;28;20032;-62
2023/01/26 08:51:58;;;;;;;35.30;16.67;;;4.80;99.90;;;;;;5079966;28;20032;-61
2023/01/26 08:54:23;;;;;;;38.67;18.45;;;4.90;99.90;;;;;;5063029;28;20109;-61
2023/01/26 08:56:49;;;;;;;41.22;17.55;;;5.00;99.90;;;;;;5062444;28;20059;-61
2023/01/26 08:59:15;;;;;;;38.92;16.77;;;5.00;99.90;;;;;;5079756;28;20400;-61
2023/01/26 09:01:41;;;;;;;38.25;17.52;;;5.00;99.90;;;;;;5079494;28;20033;-61
2023/01/26 09:04:06;;;;;;;39.70;17.38;;;5.10;99.90;;;;;;5062266;28;20051;-61
2023/01/26 09:06:32;;;;;;;39.15;17.77;;;5.10;99.90;;;;;;5079537;28;20051;-61
2023/01/26 09:08:58;;;;;;;38.75;17.35;;;5.10;99.90;;;;;;5080119;28;20387;-62
2023/01/26 09:11:24;;;;;;;38.55;17.52;;;5.10;99.90;;;;;;5079477;28;20051;-62
2023/01/26 09:13:57;;;;;;;45.60;17.52;;;5.10;99.90;;;;;;5062268;28;20062;-63
2023/01/26 09:16:24;;;;;;;41.65;16.75;;;5.30;99.90;;;;;;5079499;28;20040;-62
2023/01/26 09:18:51;;;;;;;46.75;18.50;;;5.20;99.90;;;;;;5061841;28;20041;-62
2023/01/26 09:21:17;;;;;;;47.45;17.73;;;5.20;99.90;;;;;;5078815;28;20296;-62
2023/01/26 09:23:43;;;;;;;47.47;16.55;;;5.20;99.90;;;;;;5079196;28;20394;-61
2023/01/26 09:26:09;;;;;;;50.88;17.95;;;5.20;99.90;;;;;;5079115;28;20079;-61
2023/01/26 09:28:35;;;;;;;49.85;16.60;;;5.30;99.90;;;;;;5079037;28;20043;-62
2023/01/26 09:31:06;;;;;;;53.20;18.48;;;5.30;99.90;;;;;;5061540;28;20405;-62
2023/01/26 09:33:32;;;;;;;47.85;18.30;;;5.40;99.90;;;;;;5079096;28;20032;-61
2023/01/26 09:36:06;;;;;;;51.42;20.08;;;5.50;99.90;;;;;;5079213;28;20032;-62
2023/01/26 09:38:33;;;;;;;48.42;18.00;;;5.60;99.90;;;;;;5061829;28;20036;-61
2023/01/26 09:41:22;;;;;;;52.17;20.25;;;5.70;99.90;;;;;;5061567;28;20123;-62
2023/01/26 09:43:56;;;;;;;46.28;17.75;;;5.80;99.90;;;;;;5031265;28;20049;-61
2023/01/26 09:46:36;;;;;;;63.75;20.48;;;5.80;99.90;;;;;;5078940;28;20052;-62
2023/01/26 09:49:14;;;;;;;48.78;18.25;;;5.80;99.90;;;;;;5079116;28;20129;-61
2023/01/26 09:52:09;;;;;;;63.90;21.15;;;6.00;99.90;;;;;;5078464;28;20049;-62
2023/01/26 09:54:47;;;;;;;54.55;19.98;;;6.10;99.90;;;;;;5078598;28;20093;-61
2023/01/26 09:57:40;;;;;;;53.40;18.92;;;6.20;99.90;;;;;;5061057;28;20074;-61
2023/01/26 10:00:19;;;;;;;52.15;18.02;;;6.20;99.90;;;;;;5061353;28;20103;-60
2023/01/26 10:02:51;;;;;;;57.35;18.08;;;6.30;99.90;;;;;;5061354;28;20420;-61
2023/01/26 10:05:20;;;;;;;48.03;18.17;;;6.40;99.90;;;;;;5061137;28;20379;-61
2023/01/26 10:07:46;;;;;;;49.20;17.90;;;6.60;99.90;;;;;;5078540;28;20350;-60
2023/01/26 10:10:25;;;;;;;51.28;17.98;;;6.60;99.90;;;;;;5061039;28;20480;-60
2023/01/26 10:12:51;;;;;;;46.22;18.40;;;6.80;99.90;;;;;;5078603;28;20036;-60
2023/01/26 10:15:30;;;;;;;50.28;17.90;;;6.80;99.90;;;;;;5078204;28;20033;-61
2023/01/26 10:18:04;;;;;;;44.38;15.88;;;6.80;99.90;;;;;;5061069;28;20302;-60
2023/01/26 10:20:46;;;;;;;51.58;17.35;;;6.90;99.90;;;;;;5060747;28;20343;-61
2023/01/26 10:23:28;;;;;;;30.65;11.27;;;6.90;99.90;;;;;;5060951;28;20408;-61
2023/01/26 10:26:19;;;;;;;46.53;15.98;;;6.90;99.90;;;;;;5044048;28;20063;-61
2023/01/26 10:28:48;;;;;;;49.08;15.73;;;7.10;99.90;;;;;;5077976;28;20024;-61
2023/01/26 10:31:26;;;;;;;40.30;15.15;;;7.20;99.90;;;;;;5059565;28;20500;-60
2023/01/26 10:33:58;;;;;;;41.78;14.80;;;7.20;99.90;;;;;;5077916;28;20024;-61
2023/01/26 10:36:27;;;;;;;40.85;14.10;;;7.30;99.90;;;;;;5077850;28;20270;-61
2023/01/26 10:39:01;;;;;;;45.92;14.57;;;7.50;99.90;;;;;;5060311;28;20035;-61
2023/01/26 10:41:28;;;;;;;42.63;14.77;;;7.50;99.90;;;;;;5077771;28;20043;-61
2023/01/26 10:44:21;;;;;;;38.58;14.10;;;7.60;99.90;;;;;;5060452;28;20384;-61
2023/01/26 10:47:02;;;;;;;40.85;12.73;;;7.60;99.90;;;;;;5060462;28;20029;-61
2023/01/26 10:49:28;;;;;;;38.15;12.77;;;7.70;99.90;;;;;;5077776;28;20035;-60
2023/01/26 10:52:16;;;;;;;40.33;11.60;;;7.80;99.90;;;;;;5059877;28;20056;-61
2023/01/26 10:54:43;;;;;;;37.00;11.18;;;7.90;99.90;;;;;;5060225;28;20036;-61
2023/01/26 10:57:31;;;;;;;35.33;11.07;;;8.00;99.90;;;;;;5043726;28;20033;-61
2023/01/26 11:00:09;;;;;;;34.55;11.10;;;7.90;99.90;;;;;;5044091;28;20040;-61
2023/01/26 11:02:35;;;;;;;30.35;10.52;;;8.10;99.90;;;;;;5059898;28;20021;-61
2023/01/26 11:05:07;;;;;;;29.95;10.88;;;8.10;99.90;;;;;;5060000;28;20032;-60
2023/01/26 11:07:45;;;;;;;31.23;9.95;;;8.30;99.90;;;;;;5059865;28;20459;-61
2023/01/26 11:10:23;;;;;;;36.40;9.50;;;8.20;99.90;;;;;;5077352;28;20081;-61
2023/01/26 11:12:50;;;;;;;31.70;9.70;;;8.30;99.90;;;;;;5059790;28;20082;-61
2023/01/26 11:15:22;;;;;;;29.55;8.90;;;8.20;99.90;;;;;;5077273;28;20028;-61
2023/01/26 11:18:14;;;;;;;33.60;9.80;;;8.30;99.90;;;;;;5059840;28;20103;-61
2023/01/26 11:21:16;;;;;;;25.20;8.43;;;8.50;99.90;;;;;;5059816;28;20037;-61
2023/01/26 11:24:03;;;;;;;37.85;9.63;;;8.40;99.90;;;;;;4999609;28;20030;-61
2023/01/26 11:26:35;;;;;;;32.22;8.65;;;8.50;99.90;;;;;;5073914;28;20040;-61
2023/01/26 11:29:10;;;;;;;28.00;6.82;;;8.60;99.90;;;;;;5060098;28;20383;-61
2023/01/26 11:31:45;;;;;;;27.25;6.95;;;8.60;99.90;;;;;;5059614;28;20028;-62
2023/01/26 11:34:17;;;;;;;25.15;7.70;;;8.50;99.90;;;;;;5077140;28;20254;-61
2023/01/26 11:37:20;;;;;;;28.30;7.22;;;8.50;99.90;;;;;;5076821;28;20028;-62
2023/01/26 11:39:58;;;;;;;29.13;6.72;;;8.40;99.90;;;;;;5076828;28;20063;-62
2023/01/26 11:42:46;;;;;;;24.40;5.80;;;8.40;99.90;;;;;;5059549;28;20037;-62
2023/01/26 11:45:27;;;;;;;30.00;6.35;;;8.50;99.90;;;;;;5059387;28;20021;-60
2023/01/26 11:48:16;;;;;;;22.80;5.47;;;8.70;99.90;;;;;;5042784;28;20180;-61
2023/01/26 11:51:01;;;;;;;25.88;5.40;;;8.80;99.90;;;;;;5059160;28;20066;-61
2023/01/26 11:53:52;;;;;;;22.63;4.65;;;8.90;99.90;;;;;;5076808;28;20033;-60
2023/01/26 11:56:27;;;;;;;24.10;5.22;;;9.10;99.90;;;;;;5059281;28;20063;-61
2023/01/26 11:58:59;;;;;;;15.73;3.90;;;9.30;99.90;;;;;;5076633;28;20039;-60
2023/01/26 12:01:30;;;;;;;24.90;4.25;;;9.40;99.90;;;;;;5076633;28;20363;-61
2023/01/26 12:03:56;;;;;;;23.92;4.47;;;9.50;99.90;;;;;;5076725;28;20036;-61
2023/01/26 12:06:36;;;;;;;23.90;4.20;;;9.70;99.90;;;;;;5059438;28;20016;-60
2023/01/26 12:09:17;;;;;;;21.77;4.03;;;9.70;99.90;;;;;;5059265;28;20025;-61
2023/01/26 12:12:28;;;;;;;21.83;4.07;;;9.90;99.90;;;;;;5076693;28;20045;-61
2023/01/26 12:15:09;;;;;;;25.30;4.72;;;10.00;99.90;;;;;;4998999;28;20026;-62
2023/01/26 12:17:41;;;;;;;20.60;3.83;;;10.00;99.90;;;;;;5070214;28;20051;-61
2023/01/26 12:20:26;;;;;;;;;;;10.10;99.90;;;;;;5077005;28;20037;-61
2023/01/26 12:22:54;;;;;;;21.58;3.65;;;10.00;99.90;;;;;;5076370;28;19908;-61
2023/01/26 12:25:35;;;;;;;16.75;3.40;;;10.20;99.90;;;;;;5076380;28;20017;-61
2023/01/26 12:28:15;;;;;;;15.68;2.97;;;10.20;99.90;;;;;;5076402;28;20035;-61
2023/01/26 12:30:47;;;;;;;17.27;3.05;;;10.30;99.90;;;;;;5076863;28;20025;-61
2023/01/26 12:33:14;;;;;;;20.57;2.80;;;10.40;99.90;;;;;;5058889;28;20131;-61
2023/01/26 12:36:21;;;;;;;15.82;3.03;;;10.40;99.90;;;;;;5076293;28;20646;-61
2023/01/26 12:39:06;;;;;;;15.07;2.50;;;10.60;99.90;;;;;;5058048;28;20415;-61
2023/01/26 12:41:56;;;;;;;13.68;2.25;;;10.80;99.90;;;;;;5076414;28;20033;-62
2023/01/26 12:44:31;;;;;;;12.15;2.40;;;10.90;99.90;;;;;;5058886;28;20028;-61
2023/01/26 12:47:02;;;;;;;14.77;2.72;;;11.00;99.90;;;;;;5058836;28;20024;-61
2023/01/26 12:49:36;;;;;;;15.45;2.70;;;11.20;99.90;;;;;;5058744;28;20090;-61
2023/01/26 12:52:35;;;;;;;16.65;3.33;;;11.30;99.90;;;;;;5076255;28;20040;-60
2023/01/26 12:55:27;;;;;;;11.73;2.20;;;11.40;99.90;;;;;;5076747;28;20342;-60
2023/01/26 12:58:07;;;;;;;19.33;2.28;;;11.30;99.90;;;;;;5079743;28;20150;-61
2023/01/26 13:00:36;;;;;;;12.95;2.38;;;11.20;99.90;;;;;;5062347;28;20032;-61
2023/01/26 13:03:20;;;;;;;14.40;2.92;;;11.20;99.90;;;;;;5062332;28;20391;-64
2023/01/26 13:05:56;;;;;;;12.40;2.13;;;11.40;99.90;;;;;;5079878;28;20028;-62
2023/01/26 13:08:31;;;;;;;17.67;2.33;;;11.30;99.90;;;;;;5062273;28;20028;-60
2023/01/26 13:10:59;;;;;;;14.98;2.90;;;11.20;99.90;;;;;;5079599;28;20029;-61
2023/01/26 13:13:27;;;;;;;21.20;2.90;;;11.10;99.90;;;;;;5062240;28;20029;-61
2023/01/26 13:16:19;;;;;;;15.20;2.50;;;10.90;99.90;;;;;;5079715;28;20473;-61
2023/01/26 13:18:56;;;;;;;15.83;3.10;;;10.70;99.90;;;;;;5056518;28;20076;-61
2023/01/26 13:21:41;;;;;;;13.93;2.33;;;10.70;99.90;;;;;;5079651;28;20033;-61
2023/01/26 13:24:16;;;;;;;18.48;2.70;;;10.80;99.90;;;;;;5079355;28;20040;-60
2023/01/26 13:26:52;;;;;;;18.25;2.70;;;10.80;99.90;;;;;;5079279;28;20020;-60
2023/01/26 13:29:24;;;;;;;14.05;2.85;;;10.90;99.90;;;;;;5079339;28;20036;-61
2023/01/26 13:31:54;;;;;;;16.60;3.33;;;10.80;99.90;;;;;;5079145;28;20277;-62
2023/01/26 13:34:42;;;;;;;16.00;2.30;;;10.70;99.90;;;;;;5079104;28;20270;-61
2023/01/26 13:37:25;;;;;;;18.70;2.38;;;10.50;99.90;;;;;;5079149;28;20064;-61
2023/01/26 13:39:57;;;;;;;14.90;3.22;;;10.40;99.90;;;;;;5079631;28;20043;-61
2023/01/26 13:42:29;;;;;;;19.90;2.83;;;10.20;99.90;;;;;;5079067;28;20043;-61
2023/01/26 13:45:14;;;;;;;15.53;2.67;;;9.90;99.90;;;;;;5079358;28;20029;-61